Time;durP1;ratioP1;P1;durP2;ratioP2;P2;SDS_P1;SDS_P2;PMS_P1;PMS_P2;Temp;Humidity;BMP_temperature;BMP_pressure;BME280_temperature;BME280_humidity;BME280_pressure;Samples;Min_cycle;Max_cycle;Signal;HPM_P1;HPM_P2
2021/12/25 18:41:41;;;;;;;7.15;1.42;;;;;;;-4.44;100.00;100791.59;5067371;27;3119078;-74
2021/12/25 18:44:08;;;;;;;5.25;1.65;;;;;;;-4.33;100.00;100810.22;5125314;27;20033;-76
2021/12/25 18:46:36;;;;;;;6.70;1.80;;;;;;;-4.46;100.00;100772.75;5160250;27;20015;-75
2021/12/25 18:49:03;;;;;;;5.32;1.50;;;;;;;-4.87;100.00;100705.06;5129691;27;20369;-77
2021/12/25 18:51:29;;;;;;;5.18;1.55;;;;;;;-4.16;100.00;100790.88;5150483;27;20056;-76
2021/12/25 18:54:26;;;;;;;5.78;1.50;;;;;;;-4.32;100.00;100805.91;5150415;27;20023;-76
2021/12/25 18:56:52;;;;;;;31.60;9.43;;;;;;;-4.26;100.00;100767.06;5137600;27;20011;-75
2021/12/25 18:59:17;;;;;;;172.18;56.90;;;;;;;-4.14;100.00;100753.00;5135232;27;20037;-79
2021/12/25 19:01:43;;;;;;;15.60;5.00;;;;;;;-3.89;100.00;100745.44;5137312;27;20026;-79
2021/12/25 19:04:09;;;;;;;104.72;39.45;;;;;;;-4.64;100.00;100663.25;5167389;27;20182;-77
2021/12/25 19:06:34;;;;;;;72.97;26.17;;;;;;;-3.58;100.00;100823.69;5168322;27;20022;-77
2021/12/25 19:09:00;;;;;;;15.32;4.78;;;;;;;-3.72;100.00;100810.31;5141234;27;20433;-78
2021/12/25 19:11:26;;;;;;;32.53;12.68;;;;;;;-4.02;100.00;100742.34;5162036;27;20377;-79
2021/12/25 19:13:52;;;;;;;10.40;3.33;;;;;;;-3.54;100.00;100765.09;5149137;27;20502;-77
2021/12/25 19:16:19;;;;;;;24.75;8.05;;;;;;;-3.75;100.00;100774.25;5140673;27;20018;-77
2021/12/25 19:18:44;;;;;;;6.18;2.00;;;;;;;-4.12;100.00;100761.56;5139286;27;20023;-78
2021/12/25 19:21:10;;;;;;;8.70;3.05;;;;;;;-3.53;100.00;100799.47;5137725;27;20023;-78
2021/12/25 19:23:37;;;;;;;45.28;16.65;;;;;;;-4.55;100.00;100672.47;5154547;27;20022;-80
2021/12/25 19:26:03;;;;;;;9.10;2.92;;;;;;;-3.60;100.00;100803.97;5109720;22;20157;-79
2021/12/25 19:28:32;;;;;;;6.20;1.73;;;;;;;-4.93;100.00;100581.56;5075298;28;20079;-77
2021/12/25 19:30:57;;;;;;;8.15;2.13;;;;;;;-3.94;100.00;100724.09;5091631;28;20024;-77
2021/12/25 19:33:23;;;;;;;13.32;4.22;;;;;;;-3.33;100.00;100797.16;5085129;28;20382;-77
2021/12/25 19:35:51;;;;;;;10.80;4.28;;;;;;;-5.01;100.00;100661.63;5086378;28;20078;-78
2021/12/25 19:38:22;;;;;;;8.43;1.92;;;;;;;-3.53;100.00;100817.56;5086259;28;20024;-78
2021/12/25 19:40:49;;;;;;;8.40;2.22;;;;;;;-3.79;100.00;100783.84;5092903;28;20062;-76
2021/12/25 19:43:15;;;;;;;6.18;2.17;;;;;;;-4.60;100.00;100715.56;5091758;28;20025;-75
2021/12/25 19:45:42;;;;;;;6.93;2.00;;;;;;;-4.30;100.00;100721.63;5088600;28;20081;-76
2021/12/25 19:48:09;;;;;;;6.57;1.75;;;;;;;-4.21;100.00;100739.44;5076145;28;20035;-78
2021/12/25 19:50:40;;;;;;;6.38;2.20;;;;;;;-3.74;100.00;100813.84;5094468;28;20099;-78
2021/12/25 19:53:08;;;;;;;9.18;3.22;;;;;;;-3.75;100.00;100778.59;5060049;28;20025;-76
2021/12/25 19:55:34;;;;;;;5.57;1.88;;;;;;;-3.95;100.00;100767.09;5078433;28;20377;-77
2021/12/25 19:58:01;;;;;;;5.20;1.60;;;;;;;-3.71;100.00;100772.47;5080777;28;20183;-79
2021/12/25 20:00:41;;;;;;;7.75;2.20;;;;;;;-4.26;100.00;100774.81;5057651;28;20105;-77
2021/12/25 20:03:09;;;;;;;6.63;1.52;;;;;;;-3.80;100.00;100794.19;5072360;28;20262;-77
2021/12/25 20:05:39;;;;;;;8.40;2.60;;;;;;;-3.61;100.00;100769.59;5054029;28;20031;-77
2021/12/25 20:08:05;;;;;;;7.22;2.30;;;;;;;-3.81;100.00;100756.41;5071932;28;20444;-76
2021/12/25 20:10:31;;;;;;;20.63;8.55;;;;;;;-4.73;100.00;100709.84;5074381;28;20109;-77
2021/12/25 20:12:58;;;;;;;15.05;4.97;;;;;;;-3.85;100.00;100765.94;5074035;28;20082;-77
2021/12/25 20:15:25;;;;;;;14.82;5.38;;;;;;;-4.43;100.00;100701.34;5061813;22;20028;-78
2021/12/25 20:17:51;;;;;;;12.05;3.80;;;;;;;-4.16;100.00;100736.72;5073779;28;20049;-77
2021/12/25 20:20:20;;;;;;;6.80;1.67;;;;;;;-4.14;100.00;100697.09;5039368;28;20054;-76
2021/12/25 20:22:46;;;;;;;11.20;4.43;;;;;;;-3.85;100.00;100794.31;5037298;28;20028;-76
2021/12/25 20:25:12;;;;;;;7.63;3.00;;;;;;;-3.57;100.00;100803.88;5054097;28;20031;-75
2021/12/25 20:27:41;;;;;;;6.20;1.73;;;;;;;-4.22;100.00;100707.66;5054694;28;20423;-76
2021/12/25 20:30:09;;;;;;;6.97;2.13;;;;;;;-4.04;100.00;100785.41;5075443;28;20054;-77
2021/12/25 20:32:38;;;;;;;7.25;2.10;;;;;;;-4.11;100.00;100771.84;5075989;28;20077;-76
2021/12/25 20:35:05;;;;;;;8.10;1.90;;;;;;;-4.93;100.00;100739.50;5075733;28;20033;-77
2021/12/25 20:37:31;;;;;;;5.45;1.83;;;;;;;-5.25;100.00;100669.06;5055550;28;20509;-77
2021/12/25 20:39:57;;;;;;;6.43;1.80;;;;;;;-5.05;100.00;100629.94;5051784;28;20036;-77
2021/12/25 20:42:23;;;;;;;169.23;58.15;;;;;;;-4.27;100.00;100714.66;5058248;28;20111;-79
2021/12/25 20:47:37;;;;;;;13.82;3.60;;;;;;;-4.54;100.00;100648.38;5053954;28;20026;-79
2021/12/25 20:50:03;;;;;;;8.77;2.92;;;;;;;-4.45;100.00;100630.09;5045543;28;20020;-77
2021/12/25 20:52:30;;;;;;;7.50;2.40;;;;;;;-5.11;100.00;100545.16;5062013;28;20056;-78
2021/12/25 20:54:57;;;;;;;7.28;1.92;;;;;;;-5.55;100.00;100554.00;5042235;28;20020;-78
2021/12/25 20:57:23;;;;;;;5.53;1.92;;;;;;;-4.51;100.00;100662.03;5048315;28;20024;-77
2021/12/25 20:59:49;;;;;;;7.13;1.90;;;;;;;-5.16;100.00;100554.69;5035406;28;20025;-79
2021/12/25 21:02:14;;;;;;;7.55;2.40;;;;;;;-4.77;100.00;100746.88;5067453;28;20029;-77
2021/12/25 21:04:41;;;;;;;11.40;3.85;;;;;;;-4.27;100.00;100761.09;5070372;28;20032;-74
2021/12/25 21:07:06;;;;;;;8.82;2.95;;;;;;;-4.33;100.00;100706.25;5049277;28;20025;-77
2021/12/25 21:09:32;;;;;;;5.72;1.83;;;;;;;-4.68;100.00;100731.19;5068285;28;20043;-76
2021/12/25 21:12:00;;;;;;;7.90;2.15;;;;;;;-4.30;100.00;100780.94;5050673;28;20036;-76
2021/12/25 21:14:27;;;;;;;7.38;2.25;;;;;;;-4.99;100.00;100682.19;5033361;28;20021;-78
2021/12/25 21:16:56;;;;;;;7.72;2.30;;;;;;;-4.95;100.00;100701.81;5048061;28;20051;-78
2021/12/25 21:19:22;;;;;;;19.42;7.57;;;;;;;-4.39;100.00;100684.06;5038408;28;20029;-77
2021/12/25 21:21:48;;;;;;;31.50;10.63;;;;;;;-4.24;100.00;100721.47;5052318;28;20043;-77
2021/12/25 21:24:14;;;;;;;7.05;2.20;;;;;;;-4.70;100.00;100653.09;5070666;28;20020;-76
2021/12/25 21:26:39;;;;;;;8.95;2.70;;;;;;;-4.57;100.00;100787.63;5033906;28;20089;-76
2021/12/25 21:29:06;;;;;;;7.90;2.05;;;;;;;-5.47;100.00;100614.69;5049575;28;20021;-77
2021/12/25 21:31:32;;;;;;;7.70;1.90;;;;;;;-4.54;100.00;100754.91;5052169;28;20024;-76
2021/12/25 21:33:57;;;;;;;9.85;2.53;;;;;;;-4.94;100.00;100755.88;5064566;28;20028;-76
2021/12/25 21:36:23;;;;;;;6.00;1.73;;;;;;;-4.89;100.00;100706.81;5054446;28;20058;-76
2021/12/25 21:38:49;;;;;;;7.38;2.10;;;;;;;-4.41;100.00;100711.59;5071137;28;20027;-76
2021/12/25 21:41:14;;;;;;;7.68;2.13;;;;;;;-4.05;100.00;100734.69;5070446;28;20477;-79
2021/12/25 21:43:43;;;;;;;6.35;1.80;;;;;;;-4.11;100.00;100748.63;5074045;28;20025;-77
2021/12/25 21:46:09;;;;;;;6.22;1.85;;;;;;;-4.50;100.00;100735.03;5069505;28;20066;-77
2021/12/25 21:48:35;;;;;;;6.53;2.15;;;;;;;-5.46;100.00;100626.66;5055577;28;20032;-74
2021/12/25 21:51:00;;;;;;;6.93;2.25;;;;;;;-4.57;100.00;100748.97;5043494;22;20307;-75
2021/12/25 21:53:26;;;;;;;6.85;2.20;;;;;;;-4.35;100.00;100744.97;5020234;28;20506;-74
2021/12/25 21:55:52;;;;;;;7.72;2.03;;;;;;;-4.47;100.00;100748.69;5017452;28;20104;-74
2021/12/25 21:58:18;;;;;;;6.68;1.90;;;;;;;-4.68;100.00;100669.34;5019186;28;20024;-74
2021/12/25 22:00:46;;;;;;;7.80;2.40;;;;;;;-4.29;100.00;100751.66;5037311;22;20041;-74
2021/12/25 22:03:13;;;;;;;5.60;2.08;;;;;;;-4.24;100.00;100742.09;5031927;28;20037;-74
2021/12/25 22:05:43;;;;;;;6.35;2.03;;;;;;;-4.04;100.00;100759.63;5030543;22;20038;-75
2021/12/25 22:08:11;;;;;;;7.75;2.70;;;;;;;-4.62;100.00;100749.09;5019452;28;20047;-76
2021/12/25 22:10:38;;;;;;;6.65;2.20;;;;;;;-5.71;100.00;100589.53;5020006;28;20064;-75
2021/12/25 22:13:07;;;;;;;8.52;2.30;;;;;;;-5.06;100.00;100681.50;5025843;28;20356;-75
2021/12/25 22:15:33;;;;;;;6.93;2.30;;;;;;;-4.72;100.00;100662.63;5032493;22;20016;-75
2021/12/25 22:17:59;;;;;;;6.00;1.85;;;;;;;-4.52;100.00;100650.06;5077306;28;20035;-75
2021/12/25 22:20:28;;;;;;;7.10;2.10;;;;;;;-4.12;100.00;100691.91;5090035;28;20383;-74
2021/12/25 22:22:54;;;;;;;6.05;1.95;;;;;;;-4.38;100.00;100683.19;5062655;28;20253;-75
2021/12/25 22:25:21;;;;;;;6.65;1.77;;;;;;;-4.75;100.00;100685.88;5071752;28;20454;-76
2021/12/25 22:27:48;;;;;;;6.22;2.08;;;;;;;-5.41;100.00;100649.69;5088719;28;20024;-76
2021/12/25 22:30:19;;;;;;;4.88;1.70;;;;;;;-4.30;100.00;100719.06;5091482;28;20039;-75
2021/12/25 22:32:49;;;;;;;5.78;2.00;;;;;;;-4.68;100.00;100715.72;5073475;28;20020;-76
2021/12/25 22:35:16;;;;;;;8.32;1.85;;;;;;;-4.75;100.00;100722.78;5097855;28;20020;-75
2021/12/25 22:37:42;;;;;;;6.72;1.90;;;;;;;-5.16;100.00;100624.22;5082125;28;20024;-76
2021/12/25 22:40:12;;;;;;;6.30;2.05;;;;;;;-4.54;100.00;100707.66;5099930;28;20040;-75
2021/12/25 22:42:39;;;;;;;5.82;1.90;;;;;;;-5.24;100.00;100718.81;5093145;28;20034;-76
2021/12/25 22:45:05;;;;;;;7.30;2.30;;;;;;;-4.86;100.00;100709.31;5080928;28;20039;-76
2021/12/25 22:47:32;;;;;;;5.70;1.85;;;;;;;-5.13;100.00;100636.16;5106234;28;20035;-77
2021/12/25 22:49:59;;;;;;;4.57;1.80;;;;;;;-4.48;100.00;100710.06;5104871;28;20028;-76
2021/12/25 22:52:25;;;;;;;6.65;2.05;;;;;;;-5.08;100.00;100715.00;5082848;28;20032;-76
2021/12/25 22:54:51;;;;;;;7.93;2.10;;;;;;;-5.29;100.00;100671.72;5097427;28;20150;-75
2021/12/25 22:57:17;;;;;;;6.75;2.00;;;;;;;-5.47;100.00;100657.59;5096331;28;20497;-75
2021/12/25 22:59:44;;;;;;;7.65;2.08;;;;;;;-5.23;100.00;100733.38;5096638;28;20402;-76
2021/12/25 23:02:10;;;;;;;6.13;2.17;;;;;;;-5.15;100.00;100619.94;5078219;28;20016;-76
2021/12/25 23:04:38;;;;;;;8.80;2.10;;;;;;;-4.41;100.00;100729.63;5077947;28;20123;-75
2021/12/25 23:07:05;;;;;;;6.13;1.80;;;;;;;-4.44;100.00;100709.94;5094173;28;20477;-76
2021/12/25 23:09:31;;;;;;;5.82;1.80;;;;;;;-4.70;100.00;100678.84;5095425;28;20024;-76
2021/12/25 23:11:56;;;;;;;6.03;2.20;;;;;;;-4.71;100.00;100652.25;5095546;28;20046;-76
2021/12/25 23:14:23;;;;;;;5.68;1.77;;;;;;;-5.63;100.00;100612.50;5094375;28;20024;-75
2021/12/25 23:16:48;;;;;;;4.88;1.77;;;;;;;-5.54;100.00;100602.84;5094231;28;20147;-76
2021/12/25 23:19:15;;;;;;;6.78;2.50;;;;;;;-5.20;100.00;100599.44;5094805;28;20107;-76
2021/12/25 23:21:42;;;;;;;6.15;1.98;;;;;;;-5.76;100.00;100545.06;5077122;28;20491;-76
2021/12/25 23:24:09;;;;;;;7.80;1.98;;;;;;;-5.11;100.00;100666.16;5093998;28;20028;-76
2021/12/25 23:26:35;;;;;;;5.75;2.05;;;;;;;-4.97;100.00;100632.34;5096452;28;20024;-75
2021/12/25 23:29:02;;;;;;;6.50;1.90;;;;;;;-4.82;100.00;100677.44;5099108;28;20039;-76
2021/12/25 23:31:28;;;;;;;5.47;1.70;;;;;;;-5.75;100.00;100590.47;5100213;28;20024;-75
2021/12/25 23:33:54;;;;;;;5.47;1.77;;;;;;;-4.69;100.00;100676.25;5100307;28;20028;-75
2021/12/25 23:36:23;;;;;;;5.70;1.98;;;;;;;-5.50;100.00;100603.59;5098334;28;20374;-75
2021/12/25 23:38:58;;;;;;;6.57;1.90;;;;;;;-6.38;100.00;100512.22;5098300;28;20462;-75
2021/12/25 23:41:24;;;;;;;7.10;2.22;;;;;;;-5.76;100.00;100659.06;5101024;28;20459;-75
2021/12/25 23:43:56;;;;;;;6.75;1.92;;;;;;;-5.40;100.00;100694.31;5100989;28;20024;-75
2021/12/25 23:46:23;;;;;;;5.45;1.95;;;;;;;-5.70;100.00;100607.50;5099690;28;20466;-75
2021/12/25 23:48:49;;;;;;;4.65;1.70;;;;;;;-6.43;100.00;100544.88;5100868;28;20421;-76
2021/12/25 23:51:15;;;;;;;4.88;1.90;;;;;;;-5.52;100.00;100607.94;5098601;28;20025;-76
2021/12/25 23:53:42;;;;;;;7.50;1.85;;;;;;;-4.98;100.00;100674.41;5078989;28;20082;-76
2021/12/25 23:56:10;;;;;;;6.80;2.08;;;;;;;-5.46;100.00;100662.69;5078090;28;20027;-75
2021/12/25 23:58:38;;;;;;;7.88;2.00;;;;;;;-5.47;100.00;100567.53;5077657;28;20085;-75
